createdAt,value
2023-09-08T00:01:23.015Z,100.00
2023-09-08T00:04:11.334Z,100.00
2023-09-08T00:06:57.936Z,96.25
2023-09-08T00:09:45.187Z,92.81
2023-09-08T00:12:31.776Z,92.34
2023-09-08T00:15:18.922Z,99.91
2023-09-08T00:18:06.248Z,92.20
2023-09-08T00:20:54.498Z,93.25
2023-09-08T00:23:41.785Z,99.42
2023-09-08T00:26:28.386Z,99.57
2023-09-08T00:29:15.313Z,100.00
2023-09-08T00:32:02.161Z,100.00
2023-09-08T00:34:49.085Z,100.00
2023-09-08T00:37:37.409Z,100.00
2023-09-08T00:40:24.275Z,100.00
2023-09-08T00:43:11.288Z,100.00
2023-09-08T00:46:00.309Z,100.00
2023-09-08T00:48:48.388Z,100.00
2023-09-08T00:51:36.290Z,100.00
2023-09-08T00:54:24.732Z,100.00
2023-09-08T00:57:11.934Z,100.00
2023-09-08T00:59:58.654Z,100.00
2023-09-08T01:02:46.455Z,100.00
2023-09-08T01:05:35.221Z,100.00
2023-09-08T01:08:22.678Z,100.00
2023-09-08T01:11:10.764Z,100.00
2023-09-08T01:13:57.336Z,100.00
2023-09-08T01:16:44.339Z,99.91
2023-09-08T01:19:31.459Z,99.23
2023-09-08T01:22:38.619Z,100.00
2023-09-08T01:25:29.040Z,100.00
2023-09-08T01:28:17.060Z,100.00
2023-09-08T01:31:04.121Z,100.00
2023-09-08T01:33:52.420Z,99.90
2023-09-08T01:36:38.930Z,99.99
2023-09-08T01:39:31.128Z,100.00
2023-09-08T01:42:19.823Z,99.73
2023-09-08T01:45:08.341Z,99.75
2023-09-08T01:47:55.465Z,99.66
2023-09-08T01:50:42.315Z,100.00
2023-09-08T01:53:30.548Z,100.00
2023-09-08T01:56:17.511Z,99.83
2023-09-08T01:59:06.134Z,100.00
2023-09-08T02:01:53.792Z,100.00
2023-09-08T02:04:40.494Z,100.00
2023-09-08T02:07:27.400Z,100.00
2023-09-08T02:10:14.094Z,100.00
2023-09-08T02:13:00.903Z,100.00
2023-09-08T02:15:49.434Z,100.00
2023-09-08T02:18:36.548Z,100.00
2023-09-08T02:21:23.825Z,100.00
2023-09-08T02:24:10.604Z,99.66
2023-09-08T02:26:57.453Z,98.65
2023-09-08T02:29:44.897Z,97.42
2023-09-08T02:32:33.262Z,98.33
2023-09-08T02:35:20.311Z,95.09
2023-09-08T02:38:07.823Z,95.60
2023-09-08T02:40:54.869Z,97.20
2023-09-08T02:44:04.382Z,95.96
2023-09-08T02:46:51.138Z,95.72
2023-09-08T02:49:39.465Z,95.90
2023-09-08T02:52:25.982Z,96.32
2023-09-08T02:55:12.861Z,96.51
2023-09-08T02:57:59.936Z,96.00
2023-09-08T03:00:47.887Z,94.94
2023-09-08T03:03:36.218Z,96.13
2023-09-08T03:06:27.793Z,95.31
2023-09-08T03:09:15.311Z,97.14
2023-09-08T03:12:02.372Z,97.42
2023-09-08T03:14:49.101Z,97.11
2023-09-08T03:17:35.938Z,97.18
2023-09-08T03:20:23.300Z,97.05
2023-09-08T03:23:11.748Z,95.73
2023-09-08T03:25:58.462Z,94.75
2023-09-08T03:28:46.386Z,94.53
2023-09-08T03:31:33.633Z,94.84
2023-09-08T03:34:22.035Z,96.27
2023-09-08T03:37:09.686Z,95.97
2023-09-08T03:39:58.193Z,93.76
2023-09-08T03:42:45.235Z,93.62
2023-09-08T03:45:31.988Z,92.89
2023-09-08T03:48:19.260Z,93.52
2023-09-08T03:51:06.153Z,93.77
2023-09-08T03:53:53.515Z,93.91
2023-09-08T03:56:41.533Z,95.08
2023-09-08T03:59:28.454Z,94.89
2023-09-08T04:02:15.402Z,94.52
2023-09-08T04:05:02.273Z,94.42
2023-09-08T04:07:49.196Z,94.78
2023-09-08T04:10:37.817Z,94.82
2023-09-08T04:13:26.618Z,96.88
2023-09-08T04:16:13.332Z,95.42
2023-09-08T04:19:00.255Z,94.04
2023-09-08T04:21:47.126Z,94.02
2023-09-08T04:24:37.542Z,95.29
2023-09-08T04:27:24.605Z,94.92
2023-09-08T04:30:14.354Z,93.47
2023-09-08T04:33:01.290Z,93.41
2023-09-08T04:35:48.073Z,94.63
2023-09-08T04:38:34.885Z,95.50
2023-09-08T04:41:21.696Z,100.00
2023-09-08T04:44:08.567Z,100.00
2023-09-08T04:46:57.068Z,100.00
2023-09-08T04:49:45.155Z,100.00
2023-09-08T04:52:32.189Z,100.00
2023-09-08T04:55:20.937Z,100.00
2023-09-08T04:58:08.553Z,100.00
2023-09-08T05:00:56.508Z,100.00
2023-09-08T05:03:45.371Z,100.00
2023-09-08T05:06:33.153Z,100.00
2023-09-08T05:09:20.014Z,100.00
2023-09-08T05:12:07.363Z,100.00
2023-09-08T05:15:01.130Z,100.00
2023-09-08T05:17:49.152Z,100.00
2023-09-08T05:20:39.142Z,100.00
2023-09-08T05:23:26.030Z,99.51
2023-09-08T05:26:12.924Z,97.45
2023-09-08T05:28:59.734Z,96.50
2023-09-08T05:31:47.533Z,96.37
2023-09-08T05:34:34.597Z,95.94
2023-09-08T05:37:23.076Z,94.74
2023-09-08T05:40:11.010Z,94.45
2023-09-08T05:42:57.968Z,94.06
2023-09-08T05:45:44.963Z,95.81
2023-09-08T05:48:32.039Z,96.16
2023-09-08T05:51:27.252Z,95.66
2023-09-08T05:54:19.139Z,94.60
2023-09-08T05:57:07.625Z,94.67
2023-09-08T05:59:54.474Z,94.09
2023-09-08T06:02:41.554Z,93.15
2023-09-08T06:05:31.397Z,94.68
2023-09-08T06:08:18.317Z,95.71
2023-09-08T06:11:27.619Z,96.85
2023-09-08T06:14:34.343Z,95.23
2023-09-08T06:17:25.553Z,94.28
2023-09-08T06:20:14.872Z,94.72
2023-09-08T06:23:01.923Z,93.38
2023-09-08T06:25:49.369Z,93.00
2023-09-08T06:28:38.238Z,93.17
2023-09-08T06:31:25.689Z,90.99
2023-09-08T06:34:13.067Z,91.79
2023-09-08T06:37:00.031Z,91.32
2023-09-08T06:39:47.081Z,90.01
2023-09-08T06:42:34.108Z,89.85
2023-09-08T06:45:31.673Z,90.42
2023-09-08T06:48:18.757Z,87.68
2023-09-08T06:51:05.736Z,87.64
2023-09-08T06:53:58.235Z,87.62
2023-09-08T06:56:49.199Z,98.89
2023-09-08T06:59:36.121Z,91.65
2023-09-08T07:02:24.261Z,88.57
2023-09-08T07:05:12.057Z,87.74
2023-09-08T07:07:58.855Z,86.34
2023-09-08T07:10:45.829Z,82.07
2023-09-08T07:13:32.680Z,77.97
2023-09-08T07:16:20.163Z,75.20
2023-09-08T07:19:08.696Z,76.09
2023-09-08T07:21:55.764Z,71.08
2023-09-08T07:24:43.233Z,70.66
2023-09-08T07:27:29.972Z,68.75
2023-09-08T07:30:17.056Z,65.78
2023-09-08T07:33:05.945Z,73.18
2023-09-08T07:35:54.542Z,73.05
2023-09-08T07:38:41.690Z,75.09
2023-09-08T07:41:28.851Z,77.91
2023-09-08T07:44:16.280Z,78.40
2023-09-08T07:47:02.816Z,76.76
2023-09-08T07:49:50.179Z,68.10
2023-09-08T07:52:38.381Z,65.25
2023-09-08T07:55:28.503Z,62.39
2023-09-08T07:58:15.282Z,64.28
2023-09-08T08:01:02.232Z,62.78
2023-09-08T08:03:49.183Z,66.22
2023-09-08T08:06:36.139Z,64.24
2023-09-08T08:09:24.337Z,60.14
2023-09-08T08:12:11.131Z,61.21
2023-09-08T08:14:57.908Z,63.60
2023-09-08T08:17:45.073Z,59.40
2023-09-08T08:20:35.832Z,56.80
2023-09-08T08:23:22.750Z,52.06
2023-09-08T08:26:10.653Z,53.92
2023-09-08T08:28:57.554Z,53.07
2023-09-08T08:31:44.481Z,51.74
2023-09-08T08:34:31.266Z,51.41
2023-09-08T08:37:18.228Z,50.63
2023-09-08T08:40:06.531Z,52.33
2023-09-08T08:42:58.442Z,51.60
2023-09-08T08:45:48.834Z,51.66
2023-09-08T08:48:36.693Z,50.31
2023-09-08T08:51:25.822Z,49.63
2023-09-08T08:54:14.951Z,48.47
2023-09-08T08:57:02.399Z,48.57
2023-09-08T08:59:52.880Z,47.57
2023-09-08T09:02:42.415Z,46.59
2023-09-08T09:05:29.622Z,46.18
2023-09-08T09:08:18.314Z,46.94
2023-09-08T09:11:04.922Z,45.53
2023-09-08T09:13:51.699Z,44.97
2023-09-08T09:16:43.551Z,47.33
2023-09-08T09:19:32.537Z,44.80
2023-09-08T09:22:23.159Z,45.77
2023-09-08T09:25:11.890Z,43.87
2023-09-08T09:28:00.124Z,44.83
2023-09-08T09:30:50.485Z,44.22
2023-09-08T09:33:38.749Z,44.72
2023-09-08T09:36:25.726Z,45.28
2023-09-08T09:39:13.145Z,45.13
2023-09-08T09:42:00.478Z,45.88
2023-09-08T09:44:48.990Z,44.30
2023-09-08T09:47:35.936Z,44.53
2023-09-08T09:50:31.504Z,42.51
2023-09-08T09:53:19.346Z,45.09
2023-09-08T09:56:06.170Z,43.94
2023-09-08T09:58:56.115Z,42.77
2023-09-08T10:01:44.923Z,42.85
2023-09-08T10:04:33.329Z,42.79
2023-09-08T10:07:21.497Z,43.37
2023-09-08T10:10:10.578Z,44.66
2023-09-08T10:13:02.473Z,43.91
2023-09-08T10:15:51.138Z,42.93
2023-09-08T10:18:39.035Z,44.15
2023-09-08T10:21:29.053Z,43.28
2023-09-08T10:24:25.063Z,44.76
2023-09-08T10:27:13.741Z,43.76
2023-09-08T10:30:02.700Z,44.83
2023-09-08T10:32:51.253Z,44.31
2023-09-08T10:35:38.241Z,44.93
2023-09-08T10:38:26.722Z,44.05
2023-09-08T10:41:33.388Z,43.29
2023-09-08T10:44:20.555Z,42.88
2023-09-08T10:47:07.353Z,43.25
2023-09-08T10:49:59.630Z,43.47
2023-09-08T10:52:48.360Z,43.79
2023-09-08T10:55:38.759Z,43.87
2023-09-08T10:58:35.125Z,44.18
2023-09-08T11:01:28.025Z,43.25
2023-09-08T11:04:20.332Z,42.52
2023-09-08T11:07:07.340Z,42.42
2023-09-08T11:09:54.903Z,43.50
2023-09-08T11:12:41.842Z,40.35
2023-09-08T11:15:30.124Z,43.87
2023-09-08T11:18:17.198Z,42.47
2023-09-08T11:21:09.637Z,41.58
2023-09-08T11:23:57.099Z,42.35
2023-09-08T11:26:46.923Z,42.25
2023-09-08T11:29:34.195Z,44.28
2023-09-08T11:32:22.987Z,41.76
2023-09-08T11:35:11.797Z,40.14
2023-09-08T11:38:06.094Z,40.79
2023-09-08T11:40:52.901Z,40.54
2023-09-08T11:43:39.658Z,39.06
2023-09-08T11:46:28.397Z,36.91
2023-09-08T11:49:20.689Z,39.02
2023-09-08T11:52:08.646Z,38.95
2023-09-08T11:55:06.646Z,41.40
2023-09-08T11:57:58.533Z,40.74
2023-09-08T12:00:49.059Z,39.77
2023-09-08T12:03:36.008Z,40.19
2023-09-08T12:06:28.672Z,37.39
2023-09-08T12:09:16.322Z,37.44
2023-09-08T12:12:05.676Z,38.23
2023-09-08T12:14:52.473Z,37.93
2023-09-08T12:17:49.480Z,38.09
2023-09-08T12:20:37.570Z,37.36
2023-09-08T12:23:25.557Z,39.93
2023-09-08T12:26:12.843Z,39.31
2023-09-08T12:28:59.996Z,38.54
2023-09-08T12:31:47.427Z,37.88
2023-09-08T12:34:34.307Z,37.18
2023-09-08T12:37:24.930Z,42.87
2023-09-08T12:40:13.853Z,40.70
2023-09-08T12:43:03.788Z,37.98
2023-09-08T12:46:06.942Z,38.39
2023-09-08T12:48:53.786Z,40.46
2023-09-08T12:51:41.194Z,41.75
2023-09-08T12:54:28.082Z,37.62
2023-09-08T12:57:16.462Z,37.01
2023-09-08T13:00:03.890Z,40.64
2023-09-08T13:02:50.891Z,37.42
2023-09-08T13:05:39.966Z,40.66
2023-09-08T13:08:26.941Z,36.26
2023-09-08T13:11:13.952Z,40.78
2023-09-08T13:14:02.250Z,43.96
2023-09-08T13:16:49.275Z,38.84
2023-09-08T13:19:36.094Z,40.59
2023-09-08T13:22:23.085Z,38.73
2023-09-08T13:25:10.901Z,39.60
2023-09-08T13:27:58.014Z,35.02
2023-09-08T13:30:46.678Z,35.91
2023-09-08T13:33:33.246Z,35.43
2023-09-08T13:36:20.086Z,39.14
2023-09-08T13:39:06.951Z,41.40
2023-09-08T13:41:54.823Z,40.59
2023-09-08T13:44:42.182Z,39.07
2023-09-08T13:47:30.893Z,38.68
2023-09-08T13:50:18.405Z,39.33
2023-09-08T13:53:06.231Z,38.50
2023-09-08T13:55:57.022Z,37.89
2023-09-08T13:58:50.031Z,36.88
2023-09-08T14:01:41.282Z,37.88
2023-09-08T14:04:33.660Z,33.63
2023-09-08T14:13:00.358Z,38.30
2023-09-08T14:15:47.222Z,35.69
2023-09-08T14:18:34.042Z,35.09
2023-09-08T14:21:22.409Z,35.14
2023-09-08T14:24:09.435Z,35.54
2023-09-08T14:26:56.287Z,36.13
2023-09-08T14:29:43.127Z,36.70
2023-09-08T14:32:30.226Z,36.96
2023-09-08T14:35:17.283Z,38.79
2023-09-08T14:38:05.767Z,38.24
2023-09-08T14:41:03.896Z,37.87
2023-09-08T14:43:50.603Z,40.02
2023-09-08T14:46:37.288Z,39.78
2023-09-08T14:49:24.348Z,39.42
2023-09-08T14:52:11.401Z,38.81
2023-09-08T14:54:59.678Z,36.13
2023-09-08T14:57:46.913Z,36.22
2023-09-08T15:00:33.650Z,36.27
2023-09-08T15:03:20.567Z,35.13
2023-09-08T15:06:07.480Z,36.60
2023-09-08T15:08:54.423Z,36.71
2023-09-08T15:11:42.626Z,35.69
2023-09-08T15:14:29.613Z,36.80
2023-09-08T15:17:18.095Z,37.96
2023-09-08T15:20:05.834Z,37.10
2023-09-08T15:22:52.683Z,38.07
2023-09-08T15:25:39.716Z,40.03
2023-09-08T15:28:27.985Z,40.82
2023-09-08T15:31:18.209Z,38.81
2023-09-08T15:34:05.110Z,40.60
2023-09-08T15:36:52.303Z,39.84
2023-09-08T15:39:39.539Z,39.85
2023-09-08T15:42:26.448Z,38.61
2023-09-08T15:45:14.784Z,39.56
2023-09-08T15:48:01.836Z,40.76
2023-09-08T15:50:48.634Z,41.31
2023-09-08T15:53:35.749Z,41.04
2023-09-08T15:56:22.508Z,42.42
2023-09-08T15:59:09.389Z,43.18
2023-09-08T16:01:57.745Z,41.97
2023-09-08T16:04:44.733Z,41.24
2023-09-08T16:07:31.736Z,44.05
2023-09-08T16:10:18.822Z,44.26
2023-09-08T16:13:05.772Z,43.64
2023-09-08T16:15:52.350Z,46.84
2023-09-08T16:18:40.661Z,46.70
2023-09-08T16:21:27.282Z,46.96
2023-09-08T16:24:14.227Z,48.35
2023-09-08T16:27:02.271Z,49.97
2023-09-08T16:29:49.166Z,50.33
2023-09-08T16:32:35.920Z,51.02
2023-09-08T16:35:24.086Z,50.76
2023-09-08T16:38:10.977Z,52.72
2023-09-08T16:40:59.138Z,54.34
2023-09-08T16:43:46.009Z,52.40
2023-09-08T16:46:32.844Z,54.17
2023-09-08T16:49:19.738Z,53.08
2023-09-08T16:52:08.125Z,54.24
2023-09-08T16:54:54.885Z,54.91
2023-09-08T16:57:42.351Z,56.04
2023-09-08T17:00:28.952Z,56.45
2023-09-08T17:03:15.864Z,57.11
2023-09-08T17:06:02.631Z,58.82
2023-09-08T17:08:50.878Z,60.40
2023-09-08T17:11:39.524Z,59.51
2023-09-08T17:14:26.353Z,58.92
2023-09-08T17:17:13.132Z,58.56
2023-09-08T17:20:00.336Z,60.81
2023-09-08T17:22:47.032Z,61.33
2023-09-08T17:25:35.271Z,60.24
2023-09-08T17:28:22.262Z,60.55
2023-09-08T17:31:09.287Z,60.59
2023-09-08T17:33:56.211Z,60.63
2023-09-08T17:36:43.008Z,61.87
2023-09-08T17:39:30.068Z,60.46
2023-09-08T17:42:18.081Z,60.13
2023-09-08T17:45:05.479Z,61.95
2023-09-08T17:47:52.527Z,60.89
2023-09-08T17:50:39.677Z,59.32
2023-09-08T17:53:26.325Z,62.71
2023-09-08T17:56:13.199Z,63.53
2023-09-08T17:59:01.509Z,59.62
2023-09-08T18:01:48.469Z,58.72
2023-09-08T18:04:36.173Z,58.44
2023-09-08T18:07:23.186Z,58.58
2023-09-08T18:10:10.363Z,59.01
2023-09-08T18:12:57.262Z,60.27
2023-09-08T18:15:45.406Z,59.68
2023-09-08T18:18:32.570Z,60.07
2023-09-08T18:21:19.206Z,60.06
2023-09-08T18:24:06.454Z,59.96
2023-09-08T18:26:53.448Z,58.39
2023-09-08T18:29:40.521Z,61.13
2023-09-08T18:32:28.704Z,58.83
2023-09-08T18:35:15.749Z,60.31
2023-09-08T18:38:02.518Z,59.08
2023-09-08T18:40:49.261Z,59.21
2023-09-08T18:43:36.186Z,59.92
2023-09-08T18:46:23.142Z,60.76
2023-09-08T18:49:11.309Z,59.35
2023-09-08T18:51:58.083Z,60.08
2023-09-08T18:54:45.341Z,59.76
2023-09-08T18:57:32.356Z,59.78
2023-09-08T19:00:19.564Z,58.23
2023-09-08T19:03:06.897Z,59.32
2023-09-08T19:05:55.445Z,58.05
2023-09-08T19:08:42.281Z,58.18
2023-09-08T19:11:28.803Z,57.84
2023-09-08T19:14:16.603Z,57.26
2023-09-08T19:17:03.938Z,57.00
2023-09-08T19:19:50.444Z,58.75
2023-09-08T19:25:52.920Z,73.90
2023-09-08T19:28:39.747Z,76.57
2023-09-08T19:31:26.718Z,73.80
2023-09-08T19:34:13.503Z,72.94
2023-09-08T19:37:00.300Z,73.39
2023-09-08T19:39:48.669Z,73.64
2023-09-08T19:42:35.829Z,74.02
2023-09-08T19:45:22.591Z,74.08
2023-09-08T19:48:09.812Z,74.56
2023-09-08T19:50:56.686Z,76.24
2023-09-08T19:53:44.076Z,75.67
2023-09-08T19:56:32.491Z,75.87
2023-09-08T19:59:19.704Z,74.02
2023-09-08T20:02:06.508Z,77.99
2023-09-08T20:04:53.280Z,78.02
2023-09-08T20:07:40.905Z,79.09
2023-09-08T20:10:27.801Z,78.96
2023-09-08T20:13:17.114Z,80.17
2023-09-08T20:16:06.110Z,79.49
2023-09-08T20:18:52.850Z,81.99
2023-09-08T20:21:39.815Z,82.08
2023-09-08T20:24:26.590Z,80.13
2023-09-08T20:27:13.617Z,79.75
2023-09-08T20:30:01.943Z,80.14
2023-09-08T20:32:48.849Z,80.01
2023-09-08T20:35:37.191Z,81.23
2023-09-08T20:38:24.095Z,80.93
2023-09-08T20:41:13.621Z,80.18
2023-09-08T20:44:00.716Z,81.02
2023-09-08T20:46:49.308Z,80.44
2023-09-08T20:49:38.280Z,80.31
2023-09-08T20:52:25.274Z,81.76
2023-09-08T20:55:12.447Z,82.46
2023-09-08T20:57:59.142Z,82.26
2023-09-08T21:00:46.100Z,82.87
2023-09-08T21:03:34.946Z,82.97
2023-09-08T21:06:22.528Z,83.04
2023-09-08T21:09:10.763Z,83.23
2023-09-08T21:11:57.602Z,82.85
2023-09-08T21:14:44.945Z,81.69
2023-09-08T21:17:31.480Z,83.97
2023-09-08T21:20:19.576Z,84.91
2023-09-08T21:23:06.718Z,85.24
2023-09-08T21:25:53.942Z,84.80
2023-09-08T21:28:40.750Z,82.85
2023-09-08T21:31:27.403Z,84.86
2023-09-08T21:34:14.608Z,85.59
2023-09-08T21:37:03.009Z,85.60
2023-09-08T21:39:49.786Z,85.67
2023-09-08T21:42:36.600Z,87.07
2023-09-08T21:45:23.491Z,85.90
2023-09-08T21:48:10.326Z,87.80
2023-09-08T21:50:57.334Z,88.66
2023-09-08T21:53:45.402Z,87.53
2023-09-08T21:56:34.387Z,87.69
2023-09-08T21:59:21.628Z,87.34
2023-09-08T22:02:09.324Z,87.85
2023-09-08T22:04:58.332Z,87.19
2023-09-08T22:07:46.550Z,88.13
2023-09-08T22:10:36.150Z,87.32
2023-09-08T22:13:23.513Z,88.87
2023-09-08T22:16:10.861Z,89.28
2023-09-08T22:18:57.980Z,88.53
2023-09-08T22:21:45.627Z,89.56
2023-09-08T22:24:32.541Z,87.94
2023-09-08T22:27:20.431Z,88.13
2023-09-08T22:30:08.244Z,88.56
2023-09-08T22:32:55.269Z,90.34
2023-09-08T22:35:42.244Z,88.82
2023-09-08T22:38:29.222Z,89.60
2023-09-08T22:41:16.122Z,88.24
2023-09-08T22:44:06.901Z,87.95
2023-09-08T22:46:54.960Z,87.77
2023-09-08T22:49:57.588Z,87.22
2023-09-08T22:52:44.232Z,89.02
2023-09-08T22:55:33.656Z,88.88
2023-09-08T22:58:20.776Z,88.15
2023-09-08T23:01:09.393Z,88.86
2023-09-08T23:03:56.290Z,90.62
2023-09-08T23:06:44.760Z,90.26
2023-09-08T23:09:31.494Z,88.61
2023-09-08T23:12:18.404Z,90.45
2023-09-08T23:15:06.426Z,90.59
2023-09-08T23:17:54.740Z,89.90
2023-09-08T23:20:43.190Z,88.78
2023-09-08T23:23:29.806Z,89.48
2023-09-08T23:26:16.739Z,89.56
2023-09-08T23:29:03.950Z,89.14
2023-09-08T23:31:50.552Z,88.70
2023-09-08T23:34:38.871Z,90.27
2023-09-08T23:37:26.529Z,90.96
2023-09-08T23:40:14.082Z,89.84
2023-09-08T23:43:01.058Z,89.65
2023-09-08T23:45:48.294Z,89.90
2023-09-08T23:48:35.103Z,89.73
2023-09-08T23:51:23.483Z,90.56
2023-09-08T23:54:10.214Z,90.45
2023-09-08T23:56:58.976Z,90.09
2023-09-08T23:59:46.065Z,89.45
